createdAt,value
2018-06-19T00:00:53.693Z,91.00
2018-06-19T00:05:50.407Z,91.40
2018-06-19T00:10:47.212Z,91.50
2018-06-19T00:15:43.948Z,91.70
2018-06-19T00:20:40.806Z,91.50
2018-06-19T00:25:37.637Z,91.70
2018-06-19T00:30:34.436Z,91.90
2018-06-19T00:35:31.154Z,92.00
2018-06-19T00:40:27.943Z,91.90
2018-06-19T00:45:24.732Z,92.30
2018-06-19T00:50:21.482Z,92.20
2018-06-19T00:55:18.190Z,92.70
2018-06-19T01:00:14.966Z,93.10
2018-06-19T01:05:11.598Z,93.40
2018-06-19T01:10:08.365Z,93.60
2018-06-19T01:15:05.217Z,93.30
2018-06-19T01:20:02.221Z,93.40
2018-06-19T01:24:58.881Z,93.50
2018-06-19T01:29:55.655Z,93.80
2018-06-19T01:34:52.383Z,93.70
2018-06-19T01:39:49.103Z,94.00
2018-06-19T01:44:45.781Z,94.10
2018-06-19T01:49:42.541Z,94.40
2018-06-19T01:54:39.254Z,94.50
2018-06-19T01:59:36.007Z,94.50
2018-06-19T02:04:32.701Z,94.20
2018-06-19T02:09:29.434Z,94.30
2018-06-19T02:14:26.272Z,94.40
2018-06-19T02:19:23.029Z,94.70
2018-06-19T02:24:19.765Z,94.70
2018-06-19T02:29:16.498Z,94.80
2018-06-19T02:34:13.134Z,94.60
2018-06-19T02:39:12.747Z,94.60
2018-06-19T02:44:09.810Z,94.30
2018-06-19T02:49:06.506Z,94.20
2018-06-19T02:54:03.401Z,94.10
2018-06-19T02:59:00.229Z,94.20
2018-06-19T03:03:57.355Z,94.50
2018-06-19T03:08:54.131Z,94.80
2018-06-19T03:13:50.973Z,94.90
2018-06-19T03:18:47.710Z,95.40
2018-06-19T03:23:44.523Z,95.60
2018-06-19T03:28:41.182Z,95.70
2018-06-19T03:33:37.977Z,95.80
2018-06-19T03:38:34.778Z,95.90
2018-06-19T03:43:31.503Z,96.10
2018-06-19T03:48:28.177Z,96.30
2018-06-19T03:53:24.903Z,96.40
2018-06-19T03:58:21.709Z,96.50
2018-06-19T04:03:18.884Z,96.30
2018-06-19T04:08:15.601Z,96.10
2018-06-19T04:13:12.312Z,96.30
2018-06-19T04:18:09.282Z,96.10
2018-06-19T04:23:06.231Z,96.20
2018-06-19T04:28:02.891Z,96.00
2018-06-19T04:37:55.740Z,94.70
2018-06-19T04:42:52.579Z,93.60
2018-06-19T04:47:49.280Z,90.80
2018-06-19T04:52:46.012Z,85.10
2018-06-19T04:57:42.818Z,80.10
2018-06-19T05:02:40.004Z,79.60
2018-06-19T05:12:32.708Z,86.70
2018-06-19T05:17:29.447Z,90.40
2018-06-19T05:22:26.210Z,90.60
2018-06-19T05:27:24.808Z,90.90
2018-06-19T05:32:21.768Z,91.00
2018-06-19T05:37:18.452Z,88.80
2018-06-19T05:42:15.149Z,84.20
2018-06-19T05:47:14.190Z,81.70
2018-06-19T05:52:10.895Z,80.20
2018-06-19T05:57:07.649Z,79.90
2018-06-19T06:02:04.525Z,79.80
2018-06-19T06:07:01.159Z,79.70
2018-06-19T06:11:57.832Z,79.10
2018-06-19T06:16:54.469Z,78.20
2018-06-19T06:21:51.415Z,79.30
2018-06-19T06:26:48.366Z,79.50
2018-06-19T06:31:45.106Z,78.40
2018-06-19T06:36:41.843Z,78.50
2018-06-19T06:41:45.163Z,78.10
2018-06-19T06:46:43.689Z,77.30
2018-06-19T06:51:40.249Z,76.50
2018-06-19T06:56:44.356Z,75.70
2018-06-19T07:01:43.937Z,72.90
2018-06-19T07:06:40.508Z,69.90
2018-06-19T07:11:37.479Z,66.50
2018-06-19T07:16:40.430Z,64.70
2018-06-19T07:21:47.187Z,63.90
2018-06-19T07:26:43.882Z,63.90
2018-06-19T07:31:40.262Z,63.40
2018-06-19T07:36:37.969Z,63.80
2018-06-19T07:41:34.772Z,66.20
2018-06-19T07:46:30.562Z,66.30
2018-06-19T07:51:26.373Z,64.80
2018-06-19T07:56:22.499Z,62.40
2018-06-19T08:06:19.748Z,60.20
2018-06-19T08:11:16.246Z,59.90
2018-06-19T08:16:14.936Z,61.20
2018-06-19T08:21:11.864Z,62.90
2018-06-19T08:26:18.885Z,64.70
2018-06-19T08:31:14.569Z,66.10
2018-06-19T08:36:13.938Z,64.00
2018-06-19T08:46:15.763Z,59.90
2018-06-19T09:01:05.888Z,57.00
2018-06-19T09:06:01.727Z,57.60
2018-06-19T09:10:57.504Z,55.50
2018-06-19T09:15:53.263Z,55.40
2018-06-19T09:20:48.782Z,55.20
2018-06-19T09:25:44.540Z,55.60
2018-06-19T09:30:52.458Z,54.50
2018-06-19T09:35:47.888Z,54.10
2018-06-19T09:40:43.360Z,54.20
2018-06-19T09:45:38.761Z,53.30
2018-06-19T09:50:34.204Z,55.40
2018-06-19T09:55:30.747Z,55.20
2018-06-19T10:00:34.586Z,54.70
2018-06-19T10:05:30.973Z,54.80
2018-06-19T10:10:26.282Z,53.60
2018-06-19T10:15:21.701Z,54.50
2018-06-19T10:20:16.935Z,53.30
2018-06-19T10:25:12.234Z,52.80
2018-06-19T10:30:07.984Z,53.10
2018-06-19T10:35:03.488Z,53.80
2018-06-19T10:39:58.817Z,52.70
2018-06-19T10:44:55.018Z,54.40
2018-06-19T10:49:50.070Z,55.70
2018-06-19T10:54:45.822Z,55.70
2018-06-19T10:59:40.959Z,54.80
2018-06-19T11:04:36.031Z,54.60
2018-06-19T11:09:31.265Z,53.00
2018-06-19T11:14:30.604Z,53.50
2018-06-19T11:19:26.244Z,53.20
2018-06-19T11:24:21.682Z,55.10
2018-06-19T11:29:17.159Z,54.10
2018-06-19T11:34:12.722Z,53.70
2018-06-19T11:39:14.407Z,52.40
2018-06-19T11:44:08.880Z,51.40
2018-06-19T11:49:03.482Z,53.30
2018-06-19T11:53:58.900Z,52.00
2018-06-19T11:58:54.186Z,50.80
2018-06-19T12:03:49.793Z,50.00
2018-06-19T12:08:48.910Z,50.80
2018-06-19T12:13:43.888Z,51.30
2018-06-19T12:18:41.265Z,50.80
2018-06-19T12:23:39.056Z,50.40
2018-06-19T12:33:37.052Z,52.10
2018-06-19T12:38:33.566Z,52.80
2018-06-19T12:43:30.061Z,54.80
2018-06-19T12:48:30.157Z,55.20
2018-06-19T12:53:41.801Z,55.70
2018-06-19T12:58:36.217Z,54.50
2018-06-19T13:03:47.836Z,52.20
2018-06-19T13:08:43.945Z,49.20
2018-06-19T13:19:01.459Z,50.90
2018-06-19T13:24:07.176Z,51.70
2018-06-19T13:29:54.911Z,53.00
2018-06-19T13:35:01.023Z,52.50
2018-06-19T13:41:23.837Z,50.50
2018-06-19T13:46:27.870Z,50.40
2018-06-19T13:51:31.393Z,51.70
2018-06-19T13:57:49.464Z,52.40
2018-06-19T14:02:56.591Z,51.90
2018-06-19T14:08:19.813Z,54.10
2018-06-19T14:13:26.232Z,54.20
2018-06-19T14:18:34.509Z,54.30
2018-06-19T14:23:40.646Z,53.90
2018-06-19T14:33:48.557Z,54.90
2018-06-19T14:38:53.701Z,55.40
2018-06-19T14:43:59.924Z,54.00
2018-06-19T14:49:07.875Z,54.50
2018-06-19T14:54:13.480Z,54.10
2018-06-19T14:59:20.722Z,54.40
2018-06-19T15:04:24.748Z,54.20
2018-06-19T15:09:19.530Z,54.80
2018-06-19T15:14:13.981Z,55.30
2018-06-19T15:19:08.509Z,55.80
2018-06-19T15:24:07.024Z,56.00
2018-06-19T15:29:06.778Z,55.60
2018-06-19T15:34:01.906Z,54.60
2018-06-19T15:38:56.320Z,54.80
2018-06-19T15:43:50.744Z,53.50
2018-06-19T15:48:45.247Z,52.90
2018-06-19T15:53:39.810Z,53.50
2018-06-19T15:58:34.623Z,54.00
2018-06-19T16:03:29.066Z,54.10
2018-06-19T16:08:23.765Z,54.70
2018-06-19T16:13:18.484Z,55.00
2018-06-19T16:18:13.804Z,54.10
2018-06-19T16:23:08.436Z,54.30
2018-06-19T16:28:03.009Z,54.40
2018-06-19T16:32:57.689Z,54.20
2018-06-19T16:37:52.248Z,52.80
2018-06-19T16:42:46.701Z,52.40
2018-06-19T16:47:41.242Z,52.00
2018-06-19T16:52:35.762Z,52.30
2018-06-19T16:57:31.540Z,52.70
2018-06-19T17:02:25.984Z,52.60
2018-06-19T17:07:20.447Z,52.40
2018-06-19T17:12:14.897Z,54.20
2018-06-19T17:17:09.412Z,54.60
2018-06-19T17:22:04.985Z,53.40
2018-06-19T17:26:59.394Z,52.80
2018-06-19T17:31:53.964Z,53.50
2018-06-19T17:36:48.437Z,52.90
2018-06-19T17:41:42.893Z,52.90
2018-06-19T17:46:37.356Z,53.40
2018-06-19T17:51:31.780Z,53.10
2018-06-19T17:56:26.307Z,53.30
2018-06-19T18:01:20.757Z,54.10
2018-06-19T18:06:15.169Z,54.20
2018-06-19T18:11:09.628Z,54.40
2018-06-19T18:16:04.062Z,54.10
2018-06-19T18:20:58.519Z,53.80
2018-06-19T18:25:52.941Z,53.60
2018-06-19T18:30:47.689Z,53.90
2018-06-19T18:35:43.204Z,54.00
2018-06-19T18:45:32.223Z,54.00
2018-06-19T18:50:26.665Z,53.80
2018-06-19T18:55:21.061Z,53.60
2018-06-19T19:00:15.537Z,51.00
2018-06-19T19:05:10.077Z,51.60
2018-06-19T19:10:10.521Z,55.10
2018-06-19T19:15:10.404Z,57.50
2018-06-19T19:20:04.896Z,58.70
2018-06-19T19:24:59.436Z,59.60
2018-06-19T19:29:53.940Z,62.40
2018-06-19T19:34:48.459Z,64.40
2018-06-19T19:39:42.928Z,66.50
2018-06-19T19:49:31.508Z,67.60
2018-06-19T19:54:26.080Z,68.50
2018-06-19T19:59:20.574Z,69.70
2018-06-19T20:04:15.462Z,70.80
2018-06-19T20:09:10.453Z,71.80
2018-06-19T20:14:05.138Z,74.40
2018-06-19T20:18:59.567Z,75.20
2018-06-19T20:23:54.045Z,75.60
2018-06-19T20:28:48.454Z,75.60
2018-06-19T20:33:43.813Z,76.80
2018-06-19T20:38:38.280Z,78.30
2018-06-19T20:43:32.805Z,79.60
2018-06-19T20:48:27.290Z,80.20
2018-06-19T20:53:21.681Z,80.90
2018-06-19T20:58:16.376Z,81.40
2018-06-19T21:03:10.962Z,82.20
2018-06-19T21:13:00.412Z,82.90
2018-06-19T21:17:54.856Z,83.40
2018-06-19T21:22:49.376Z,84.30
2018-06-19T21:27:43.781Z,85.00
2018-06-19T21:32:38.218Z,85.10
2018-06-19T21:37:32.621Z,84.70
2018-06-19T21:42:27.068Z,85.90
2018-06-19T21:47:21.728Z,85.20
2018-06-19T21:52:16.312Z,86.30
2018-06-19T21:57:10.881Z,87.40
2018-06-19T22:02:05.578Z,87.80
2018-06-19T22:07:00.050Z,88.50
2018-06-19T22:11:54.527Z,86.50
2018-06-19T22:16:48.942Z,87.00
2018-06-19T22:21:43.379Z,88.00
2018-06-19T22:26:37.810Z,89.20
2018-06-19T22:31:32.231Z,89.10
2018-06-19T22:36:26.937Z,89.10
2018-06-19T22:41:21.725Z,89.20
2018-06-19T22:46:16.167Z,89.20
2018-06-19T22:51:10.643Z,89.50
2018-06-19T22:56:05.157Z,90.30
2018-06-19T23:00:59.584Z,90.70
2018-06-19T23:05:54.005Z,90.70
2018-06-19T23:10:48.441Z,90.20
2018-06-19T23:15:42.829Z,90.20
2018-06-19T23:20:37.257Z,90.50
2018-06-19T23:25:31.661Z,90.90
2018-06-19T23:30:26.069Z,91.20
2018-06-19T23:35:20.488Z,91.40
2018-06-19T23:40:14.943Z,91.40
2018-06-19T23:45:09.359Z,91.30
2018-06-19T23:54:58.090Z,91.90
2018-06-19T23:59:52.572Z,92.30
